sensor_id;sensor_type;location;lat;lon;timestamp;pressure;altitude;pressure_sealevel;temperature;humidity
73306;BME280;61530;51.158;0.880;2022-11-20T00:01:06;1009.08;;;9.625;35.2931
73306;BME280;61530;51.158;0.880;2022-11-20T00:02:05;1009.07;;;9.625;34.4921
73306;BME280;61530;51.158;0.880;2022-11-20T00:03:11;1009.07;;;9.6875;34.9644
73306;BME280;61530;51.158;0.880;2022-11-20T00:04:11;1009.06;;;9.6875;35.5914
73306;BME280;61530;51.158;0.880;2022-11-20T00:05:17;1009.04;;;9.5625;34.3169
73306;BME280;61530;51.158;0.880;2022-11-20T00:06:18;1009.07;;;9.625;35.5286
73306;BME280;61530;51.158;0.880;2022-11-20T00:07:22;1009.08;;;9.625;35.4829
73306;BME280;61530;51.158;0.880;2022-11-20T00:08:23;1009.09;;;9.625;35.3445
73306;BME280;61530;51.158;0.880;2022-11-20T00:09:29;1009.11;;;9.625;35.7065
73306;BME280;61530;51.158;0.880;2022-11-20T00:10:29;1009.13;;;9.625;35.2683
73306;BME280;61530;51.158;0.880;2022-11-20T00:11:34;1009.12;;;9.5625;35.2233
73306;BME280;61530;51.158;0.880;2022-11-20T00:12:35;1009.12;;;9.625;35.5452
73306;BME280;61530;51.158;0.880;2022-11-20T00:13:41;1009.13;;;9.625;35.621
73306;BME280;61530;51.158;0.880;2022-11-20T00:14:41;1009.17;;;9.5625;35.4945
73306;BME280;61530;51.158;0.880;2022-11-20T00:15:41;1009.11;;;9.625;35.3456
73306;BME280;61530;51.158;0.880;2022-11-20T00:16:46;1009.13;;;9.625;35.5871
73306;BME280;61530;51.158;0.880;2022-11-20T00:17:47;1009.11;;;9.5625;35.2148
73306;BME280;61530;51.158;0.880;2022-11-20T00:18:53;1009.1;;;9.625;35.9254
73306;BME280;61530;51.158;0.880;2022-11-20T00:19:53;1009.09;;;9.5625;35.6613
73306;BME280;61530;51.158;0.880;2022-11-20T00:21:02;1009.12;;;9.625;35.7647
73306;BME280;61530;51.158;0.880;2022-11-20T00:21:59;1009.11;;;9.5;34.955
73306;BME280;61530;51.158;0.880;2022-11-20T00:23:05;1009.12;;;9.5625;34.8244
73306;BME280;61530;51.158;0.880;2022-11-20T00:24:07;1009.11;;;9.625;35.6233
73306;BME280;61530;51.158;0.880;2022-11-20T00:25:11;1009.09;;;9.5625;35.4565
73306;BME280;61530;51.158;0.880;2022-11-20T00:26:13;1009.1;;;9.5;34.4482
73306;BME280;61530;51.158;0.880;2022-11-20T00:27:17;1009.09;;;9.5625;35.8301
73306;BME280;61530;51.158;0.880;2022-11-20T00:28:17;1009.06;;;9.5625;35.2625
73306;BME280;61530;51.158;0.880;2022-11-20T00:29:22;1009.06;;;9.5625;35.1584
73306;BME280;61530;51.158;0.880;2022-11-20T00:30:23;1009.05;;;9.5;35.6352
73306;BME280;61530;51.158;0.880;2022-11-20T00:31:30;1009.03;;;9.5;35.5944
73306;BME280;61530;51.158;0.880;2022-11-20T00:32:30;1008.96;;;9.5625;35.9954
73306;BME280;61530;51.158;0.880;2022-11-20T00:33:29;1008.99;;;9.5625;34.8222
73306;BME280;61530;51.158;0.880;2022-11-20T00:34:34;1008.94;;;9.4375;35.1923
73306;BME280;61530;51.158;0.880;2022-11-20T00:35:35;1008.94;;;9.5;35.336
73306;BME280;61530;51.158;0.880;2022-11-20T00:36:41;1008.93;;;9.4375;34.6742
73306;BME280;61530;51.158;0.880;2022-11-20T00:37:46;1008.88;;;9.5625;35.3732
73306;BME280;61530;51.158;0.880;2022-11-20T00:38:50;1008.87;;;9.5625;35.2985
73306;BME280;61530;51.158;0.880;2022-11-20T00:39:47;1008.87;;;9.5;35.4768
73306;BME280;61530;51.158;0.880;2022-11-20T00:40:56;1008.87;;;9.5;34.285
73306;BME280;61530;51.158;0.880;2022-11-20T00:41:53;1008.86;;;9.4375;35.0293
73306;BME280;61530;51.158;0.880;2022-11-20T00:42:59;1008.84;;;9.5625;35.4571
73306;BME280;61530;51.158;0.880;2022-11-20T00:43:59;1008.84;;;9.5;35.9211
73306;BME280;61530;51.158;0.880;2022-11-20T00:45:05;1008.86;;;9.5;34.6232
73306;BME280;61530;51.158;0.880;2022-11-20T00:46:07;1008.85;;;9.4375;35.3871
73306;BME280;61530;51.158;0.880;2022-11-20T00:47:10;1008.87;;;9.4375;34.9101
73306;BME280;61530;51.158;0.880;2022-11-20T00:48:11;1008.85;;;9.5;35.008
73306;BME280;61530;51.158;0.880;2022-11-20T00:49:17;1008.84;;;9.4375;34.4104
73306;BME280;61530;51.158;0.880;2022-11-20T00:50:17;1008.86;;;9.4375;34.06
73306;BME280;61530;51.158;0.880;2022-11-20T00:51:24;1008.83;;;9.4375;34.1214
73306;BME280;61530;51.158;0.880;2022-11-20T00:52:22;1008.87;;;9.4375;34.7494
73306;BME280;61530;51.158;0.880;2022-11-20T00:53:23;1008.88;;;9.4375;34.3343
73306;BME280;61530;51.158;0.880;2022-11-20T00:54:29;1008.86;;;9.375;35.3435
73306;BME280;61530;51.158;0.880;2022-11-20T00:55:29;1008.85;;;9.4375;35.6587
73306;BME280;61530;51.158;0.880;2022-11-20T00:56:35;1008.81;;;9.4375;35.1728
73306;BME280;61530;51.158;0.880;2022-11-20T00:57:35;1008.79;;;9.4375;34.369
73306;BME280;61530;51.158;0.880;2022-11-20T00:58:43;1008.73;;;9.5;35.4149
73306;BME280;61530;51.158;0.880;2022-11-20T00:59:41;1008.71;;;9.5;36.4916
73306;BME280;61530;51.158;0.880;2022-11-20T01:00:47;1008.68;;;9.4375;35.5747
73306;BME280;61530;51.158;0.880;2022-11-20T01:01:47;1008.64;;;9.4375;35.7612
73306;BME280;61530;51.158;0.880;2022-11-20T01:02:55;1008.62;;;9.5;35.7031
73306;BME280;61530;51.158;0.880;2022-11-20T01:03:55;1008.61;;;9.5;35.1525
73306;BME280;61530;51.158;0.880;2022-11-20T01:04:58;1008.58;;;9.4375;34.9627
73306;BME280;61530;51.158;0.880;2022-11-20T01:06:00;1008.6;;;9.4375;35.0551
73306;BME280;61530;51.158;0.880;2022-11-20T01:07:05;1008.58;;;9.4375;35.2027
73306;BME280;61530;51.158;0.880;2022-11-20T01:08:11;1008.58;;;9.4375;34.5677
73306;BME280;61530;51.158;0.880;2022-11-20T01:09:17;1008.57;;;9.4375;34.5453
73306;BME280;61530;51.158;0.880;2022-11-20T01:10:17;1008.59;;;9.4375;35.5265
73306;BME280;61530;51.158;0.880;2022-11-20T01:11:26;1008.57;;;9.375;34.7796
73306;BME280;61530;51.158;0.880;2022-11-20T01:12:23;1008.57;;;9.4375;35.3534
73306;BME280;61530;51.158;0.880;2022-11-20T01:13:30;1008.6;;;9.4375;35.2284
73306;BME280;61530;51.158;0.880;2022-11-20T01:14:35;1008.59;;;9.4375;34.7406
73306;BME280;61530;51.158;0.880;2022-11-20T01:15:41;1008.59;;;9.5;35.0227
73306;BME280;61530;51.158;0.880;2022-11-20T01:16:44;1008.54;;;9.4375;34.5407
73306;BME280;61530;51.158;0.880;2022-11-20T01:17:46;1008.53;;;9.4375;35.3729
73306;BME280;61530;51.158;0.880;2022-11-20T01:18:48;1008.5;;;9.5;35.2293
73306;BME280;61530;51.158;0.880;2022-11-20T01:19:53;1008.48;;;9.4375;35.2124
73306;BME280;61530;51.158;0.880;2022-11-20T01:21:01;1008.46;;;9.5;35.6594
73306;BME280;61530;51.158;0.880;2022-11-20T01:22:05;1008.48;;;9.375;35.4698
73306;BME280;61530;51.158;0.880;2022-11-20T01:23:05;1008.48;;;9.4375;35.6475
73306;BME280;61530;51.158;0.880;2022-11-20T01:24:12;1008.46;;;9.375;35.0445
73306;BME280;61530;51.158;0.880;2022-11-20T01:25:11;1008.44;;;9.4375;34.8924
73306;BME280;61530;51.158;0.880;2022-11-20T01:26:19;1008.44;;;9.5;34.8921
73306;BME280;61530;51.158;0.880;2022-11-20T01:27:23;1008.44;;;9.375;35.1054
73306;BME280;61530;51.158;0.880;2022-11-20T01:28:24;1008.41;;;9.4375;35.1569
73306;BME280;61530;51.158;0.880;2022-11-20T01:29:25;1008.4;;;9.4375;34.7964
73306;BME280;61530;51.158;0.880;2022-11-20T01:30:31;1008.38;;;9.375;34.6077
73306;BME280;61530;51.158;0.880;2022-11-20T01:31:33;1008.36;;;9.4375;35.0211
73306;BME280;61530;51.158;0.880;2022-11-20T01:32:36;1008.37;;;9.4375;35.5549
73306;BME280;61530;51.158;0.880;2022-11-20T01:33:36;1008.34;;;9.375;35.4846
73306;BME280;61530;51.158;0.880;2022-11-20T01:34:37;1008.33;;;9.4375;35.7999
73306;BME280;61530;51.158;0.880;2022-11-20T01:35:43;1008.32;;;9.4375;35.4258
73306;BME280;61530;51.158;0.880;2022-11-20T01:36:44;1008.3;;;9.4375;35.5639
73306;BME280;61530;51.158;0.880;2022-11-20T01:37:50;1008.28;;;9.4375;34.3287
73306;BME280;61530;51.158;0.880;2022-11-20T01:38:51;1008.28;;;9.375;35.0219
73306;BME280;61530;51.158;0.880;2022-11-20T01:39:55;1008.28;;;9.4375;34.0175
73306;BME280;61530;51.158;0.880;2022-11-20T01:40:55;1008.27;;;9.4375;34.8739
73306;BME280;61530;51.158;0.880;2022-11-20T01:42:01;1008.27;;;9.375;34.6042
73306;BME280;61530;51.158;0.880;2022-11-20T01:43:12;1008.25;;;9.375;34.7598
73306;BME280;61530;51.158;0.880;2022-11-20T01:44:08;1008.21;;;9.4375;34.7879
73306;BME280;61530;51.158;0.880;2022-11-20T01:45:56;1008.2;;;9.375;35.1726
73306;BME280;61530;51.158;0.880;2022-11-20T01:46:15;1008.18;;;9.375;34.6556
73306;BME280;61530;51.158;0.880;2022-11-20T01:47:15;1008.15;;;9.4375;34.7708
73306;BME280;61530;51.158;0.880;2022-11-20T01:48:19;1008.15;;;9.4375;34.0707
73306;BME280;61530;51.158;0.880;2022-11-20T01:49:21;1008.14;;;9.4375;34.93
73306;BME280;61530;51.158;0.880;2022-11-20T01:50:26;1008.12;;;9.4375;33.5404
73306;BME280;61530;51.158;0.880;2022-11-20T01:51:28;1008.11;;;9.4375;34.0905
73306;BME280;61530;51.158;0.880;2022-11-20T01:52:29;1008.12;;;9.375;34.5992
73306;BME280;61530;51.158;0.880;2022-11-20T01:53:32;1008.11;;;9.375;35.005
73306;BME280;61530;51.158;0.880;2022-11-20T01:54:35;1008.11;;;9.375;34.8497
73306;BME280;61530;51.158;0.880;2022-11-20T01:55:41;1008.11;;;9.375;34.8679
73306;BME280;61530;51.158;0.880;2022-11-20T01:56:45;1008.08;;;9.375;34.9831
73306;BME280;61530;51.158;0.880;2022-11-20T01:57:44;1008.06;;;9.4375;34.4321
73306;BME280;61530;51.158;0.880;2022-11-20T01:58:47;1008.07;;;9.375;34.1445
73306;BME280;61530;51.158;0.880;2022-11-20T01:59:53;1008.07;;;9.375;34.6621
73306;BME280;61530;51.158;0.880;2022-11-20T02:00:49;1008.09;;;9.375;34.961
73306;BME280;61530;51.158;0.880;2022-11-20T02:01:55;1008.09;;;9.4375;34.1983
73306;BME280;61530;51.158;0.880;2022-11-20T02:02:57;1008.07;;;9.4375;34.6046
73306;BME280;61530;51.158;0.880;2022-11-20T02:04:02;1008.07;;;9.375;34.6859
73306;BME280;61530;51.158;0.880;2022-11-20T02:05:11;1008.07;;;9.4375;34.7536
73306;BME280;61530;51.158;0.880;2022-11-20T02:06:14;1008.08;;;9.4375;34.6272
73306;BME280;61530;51.158;0.880;2022-11-20T02:07:09;1008.05;;;9.375;34.9311
73306;BME280;61530;51.158;0.880;2022-11-20T02:08:15;1008.02;;;9.4375;34.7712
73306;BME280;61530;51.158;0.880;2022-11-20T02:09:15;1008.01;;;9.4375;35.2019
73306;BME280;61530;51.158;0.880;2022-11-20T02:10:21;1007.98;;;9.4375;35.1493
73306;BME280;61530;51.158;0.880;2022-11-20T02:11:21;1007.98;;;9.5;34.6044
73306;BME280;61530;51.158;0.880;2022-11-20T02:12:26;1007.98;;;9.4375;34.3534
73306;BME280;61530;51.158;0.880;2022-11-20T02:13:27;1007.97;;;9.4375;34.3754
73306;BME280;61530;51.158;0.880;2022-11-20T02:14:28;1007.95;;;9.375;35.3625
73306;BME280;61530;51.158;0.880;2022-11-20T02:15:33;1007.94;;;9.4375;34.5364
73306;BME280;61530;51.158;0.880;2022-11-20T02:16:36;1007.89;;;9.375;34.6222
73306;BME280;61530;51.158;0.880;2022-11-20T02:17:39;1007.87;;;9.375;35.1107
73306;BME280;61530;51.158;0.880;2022-11-20T02:18:40;1007.83;;;9.4375;34.5017
73306;BME280;61530;51.158;0.880;2022-11-20T02:19:45;1007.8;;;9.375;35.0881
73306;BME280;61530;51.158;0.880;2022-11-20T02:21:01;1007.79;;;9.4375;34.9266
73306;BME280;61530;51.158;0.880;2022-11-20T02:22:02;1007.81;;;9.4375;35.426
73306;BME280;61530;51.158;0.880;2022-11-20T02:23:02;1007.77;;;9.375;35.0114
73306;BME280;61530;51.158;0.880;2022-11-20T02:24:07;1007.78;;;9.375;34.7241
73306;BME280;61530;51.158;0.880;2022-11-20T02:25:04;1007.78;;;9.4375;34.8217
73306;BME280;61530;51.158;0.880;2022-11-20T02:26:12;1007.74;;;9.4375;34.2929
73306;BME280;61530;51.158;0.880;2022-11-20T02:27:16;1007.73;;;9.4375;34.5571
73306;BME280;61530;51.158;0.880;2022-11-20T02:28:22;1007.69;;;9.4375;34.935
73306;BME280;61530;51.158;0.880;2022-11-20T02:29:24;1007.67;;;9.4375;34.286
73306;BME280;61530;51.158;0.880;2022-11-20T02:30:27;1007.66;;;9.375;34.5096
73306;BME280;61530;51.158;0.880;2022-11-20T02:31:30;1007.65;;;9.375;33.9818
73306;BME280;61530;51.158;0.880;2022-11-20T02:32:36;1007.64;;;9.375;33.9014
73306;BME280;61530;51.158;0.880;2022-11-20T02:33:40;1007.65;;;9.375;33.7419
73306;BME280;61530;51.158;0.880;2022-11-20T02:34:41;1007.69;;;9.375;33.6062
73306;BME280;61530;51.158;0.880;2022-11-20T02:35:45;1007.69;;;9.25;33.4589
73306;BME280;61530;51.158;0.880;2022-11-20T02:36:48;1007.66;;;9.3125;33.6573
73306;BME280;61530;51.158;0.880;2022-11-20T02:37:49;1007.64;;;9.3125;33.7691
73306;BME280;61530;51.158;0.880;2022-11-20T02:38:53;1007.67;;;9.25;33.6913
73306;BME280;61530;51.158;0.880;2022-11-20T02:39:53;1007.65;;;9.25;33.8125
73306;BME280;61530;51.158;0.880;2022-11-20T02:40:59;1007.58;;;9.25;34.3048
73306;BME280;61530;51.158;0.880;2022-11-20T02:42:05;1007.6;;;9.3125;34.4074
73306;BME280;61530;51.158;0.880;2022-11-20T02:43:11;1007.57;;;9.25;33.9448
73306;BME280;61530;51.158;0.880;2022-11-20T02:44:11;1007.56;;;9.3125;34.5249
73306;BME280;61530;51.158;0.880;2022-11-20T02:45:17;1007.53;;;9.3125;34.1049
73306;BME280;61530;51.158;0.880;2022-11-20T02:46:17;1007.51;;;9.3125;34.0007
73306;BME280;61530;51.158;0.880;2022-11-20T02:47:23;1007.5;;;9.3125;33.8679
73306;BME280;61530;51.158;0.880;2022-11-20T02:48:23;1007.52;;;9.375;34.6446
73306;BME280;61530;51.158;0.880;2022-11-20T02:49:28;1007.46;;;9.3125;34.1965
73306;BME280;61530;51.158;0.880;2022-11-20T02:50:29;1007.44;;;9.375;34.5108
73306;BME280;61530;51.158;0.880;2022-11-20T02:51:35;1007.43;;;9.375;34.2751
73306;BME280;61530;51.158;0.880;2022-11-20T02:52:35;1007.41;;;9.375;34.7178
73306;BME280;61530;51.158;0.880;2022-11-20T02:53:40;1007.39;;;9.3125;34.5738
73306;BME280;61530;51.158;0.880;2022-11-20T02:54:40;1007.39;;;9.375;34.9366
73306;BME280;61530;51.158;0.880;2022-11-20T02:55:41;1007.35;;;9.375;34.4936
73306;BME280;61530;51.158;0.880;2022-11-20T02:56:47;1007.29;;;9.375;34.3383
73306;BME280;61530;51.158;0.880;2022-11-20T02:57:47;1007.27;;;9.3125;34.946
73306;BME280;61530;51.158;0.880;2022-11-20T02:58:53;1007.24;;;9.3125;34.8884
73306;BME280;61530;51.158;0.880;2022-11-20T02:59:53;1007.23;;;9.375;34.3817
73306;BME280;61530;51.158;0.880;2022-11-20T03:00:59;1007.23;;;9.375;33.9298
73306;BME280;61530;51.158;0.880;2022-11-20T03:01:59;1007.21;;;9.375;33.5438
73306;BME280;61530;51.158;0.880;2022-11-20T03:03:05;1007.19;;;9.375;34.1944
73306;BME280;61530;51.158;0.880;2022-11-20T03:04:05;1007.15;;;9.375;34.4628
73306;BME280;61530;51.158;0.880;2022-11-20T03:05:11;1007.14;;;9.3125;33.844
73306;BME280;61530;51.158;0.880;2022-11-20T03:06:11;1007.14;;;9.375;34.3159
73306;BME280;61530;51.158;0.880;2022-11-20T03:07:16;1007.16;;;9.375;34.5558
73306;BME280;61530;51.158;0.880;2022-11-20T03:08:16;1007.14;;;9.375;34.7399
73306;BME280;61530;51.158;0.880;2022-11-20T03:09:23;1007.09;;;9.375;33.9408
73306;BME280;61530;51.158;0.880;2022-11-20T03:10:29;1007.09;;;9.375;34.6699
73306;BME280;61530;51.158;0.880;2022-11-20T03:11:35;1007.05;;;9.375;34.474
73306;BME280;61530;51.158;0.880;2022-11-20T03:12:35;1007.07;;;9.375;34.1644
73306;BME280;61530;51.158;0.880;2022-11-20T03:13:40;1007.1;;;9.3125;34.4116
73306;BME280;61530;51.158;0.880;2022-11-20T03:14:41;1007.11;;;9.3125;33.9679
73306;BME280;61530;51.158;0.880;2022-11-20T03:15:47;1007.11;;;9.3125;34.4505
73306;BME280;61530;51.158;0.880;2022-11-20T03:16:53;1007.11;;;9.3125;34.36
73306;BME280;61530;51.158;0.880;2022-11-20T03:17:59;1007.09;;;9.375;34.8195
73306;BME280;61530;51.158;0.880;2022-11-20T03:18:59;1007.07;;;9.375;34.9233
73306;BME280;61530;51.158;0.880;2022-11-20T03:20:06;1006.99;;;9.375;34.7612
73306;BME280;61530;51.158;0.880;2022-11-20T03:21:05;1007.02;;;9.3125;34.6109
73306;BME280;61530;51.158;0.880;2022-11-20T03:22:11;1006.97;;;9.3125;33.7664
73306;BME280;61530;51.158;0.880;2022-11-20T03:23:17;1006.93;;;9.375;34.0793
73306;BME280;61530;51.158;0.880;2022-11-20T03:24:23;1006.92;;;9.375;34.0724
73306;BME280;61530;51.158;0.880;2022-11-20T03:25:23;1006.91;;;9.3125;34.0674
73306;BME280;61530;51.158;0.880;2022-11-20T03:26:29;1006.9;;;9.375;33.8783
73306;BME280;61530;51.158;0.880;2022-11-20T03:27:32;1006.88;;;9.25;34.5725
73306;BME280;61530;51.158;0.880;2022-11-20T03:28:35;1006.85;;;9.3125;34.017
73306;BME280;61530;51.158;0.880;2022-11-20T03:29:41;1006.86;;;9.375;34.4084
73306;BME280;61530;51.158;0.880;2022-11-20T03:30:47;1006.83;;;9.3125;35.3239
73306;BME280;61530;51.158;0.880;2022-11-20T03:31:47;1006.83;;;9.3125;34.6275
73306;BME280;61530;51.158;0.880;2022-11-20T03:32:53;1006.82;;;9.375;35.1564
73306;BME280;61530;51.158;0.880;2022-11-20T03:33:53;1006.78;;;9.375;35.5736
73306;BME280;61530;51.158;0.880;2022-11-20T03:34:59;1006.79;;;9.375;34.7582
73306;BME280;61530;51.158;0.880;2022-11-20T03:36:07;1006.78;;;9.375;34.8952
73306;BME280;61530;51.158;0.880;2022-11-20T03:37:11;1006.78;;;9.375;34.5549
73306;BME280;61530;51.158;0.880;2022-11-20T03:38:11;1006.76;;;9.375;34.3863
73306;BME280;61530;51.158;0.880;2022-11-20T03:39:16;1006.75;;;9.3125;34.3918
73306;BME280;61530;51.158;0.880;2022-11-20T03:40:17;1006.73;;;9.4375;34.1452
73306;BME280;61530;51.158;0.880;2022-11-20T03:41:24;1006.68;;;9.375;34.9089
73306;BME280;61530;51.158;0.880;2022-11-20T03:42:29;1006.68;;;9.375;34.6904
73306;BME280;61530;51.158;0.880;2022-11-20T03:43:35;1006.66;;;9.375;34.2821
73306;BME280;61530;51.158;0.880;2022-11-20T03:44:35;1006.64;;;9.375;34.3914
73306;BME280;61530;51.158;0.880;2022-11-20T03:45:40;1006.66;;;9.375;34.2907
73306;BME280;61530;51.158;0.880;2022-11-20T03:46:41;1006.62;;;9.375;33.9756
73306;BME280;61530;51.158;0.880;2022-11-20T03:47:47;1006.63;;;9.4375;33.9748
73306;BME280;61530;51.158;0.880;2022-11-20T03:48:53;1006.63;;;9.4375;33.2432
73306;BME280;61530;51.158;0.880;2022-11-20T03:49:59;1006.63;;;9.375;33.7695
73306;BME280;61530;51.158;0.880;2022-11-20T03:51:08;1006.65;;;9.375;33.667
73306;BME280;61530;51.158;0.880;2022-11-20T03:52:04;1006.66;;;9.375;34.1087
73306;BME280;61530;51.158;0.880;2022-11-20T03:53:05;1006.64;;;9.375;34.1606
73306;BME280;61530;51.158;0.880;2022-11-20T03:54:11;1006.62;;;9.3125;34.0196
73306;BME280;61530;51.158;0.880;2022-11-20T03:55:17;1006.63;;;9.3125;33.6401
73306;BME280;61530;51.158;0.880;2022-11-20T03:56:24;1006.65;;;9.3125;34.2877
73306;BME280;61530;51.158;0.880;2022-11-20T03:57:23;1006.64;;;9.3125;34.1738
73306;BME280;61530;51.158;0.880;2022-11-20T03:58:28;1006.64;;;9.25;34.1324
73306;BME280;61530;51.158;0.880;2022-11-20T03:59:29;1006.59;;;9.3125;33.7709
73306;BME280;61530;51.158;0.880;2022-11-20T04:00:35;1006.59;;;9.3125;34.2798
73306;BME280;61530;51.158;0.880;2022-11-20T04:01:41;1006.56;;;9.25;33.5524
73306;BME280;61530;51.158;0.880;2022-11-20T04:02:47;1006.54;;;9.25;35.0678
73306;BME280;61530;51.158;0.880;2022-11-20T04:03:48;1006.51;;;9.25;34.7774
73306;BME280;61530;51.158;0.880;2022-11-20T04:04:52;1006.47;;;9.3125;34.6836
73306;BME280;61530;51.158;0.880;2022-11-20T04:05:52;1006.47;;;9.3125;34.6422
73306;BME280;61530;51.158;0.880;2022-11-20T04:06:59;1006.42;;;9.3125;34.4194
73306;BME280;61530;51.158;0.880;2022-11-20T04:08:05;1006.39;;;9.25;34.7704
73306;BME280;61530;51.158;0.880;2022-11-20T04:09:11;1006.42;;;9.3125;34.4528
73306;BME280;61530;51.158;0.880;2022-11-20T04:10:11;1006.4;;;9.375;34.8729
73306;BME280;61530;51.158;0.880;2022-11-20T04:11:18;1006.42;;;9.3125;34.2165
73306;BME280;61530;51.158;0.880;2022-11-20T04:12:17;1006.37;;;9.25;34.5146
73306;BME280;61530;51.158;0.880;2022-11-20T04:13:23;1006.4;;;9.375;34.0666
73306;BME280;61530;51.158;0.880;2022-11-20T04:14:29;1006.37;;;9.375;34.7579
73306;BME280;61530;51.158;0.880;2022-11-20T04:15:35;1006.36;;;9.25;34.5971
73306;BME280;61530;51.158;0.880;2022-11-20T04:16:36;1006.35;;;9.375;34.5745
73306;BME280;61530;51.158;0.880;2022-11-20T04:17:40;1006.37;;;9.375;34.3619
73306;BME280;61530;51.158;0.880;2022-11-20T04:18:40;1006.36;;;9.3125;34.6888
73306;BME280;61530;51.158;0.880;2022-11-20T04:19:47;1006.33;;;9.3125;34.4046
73306;BME280;61530;51.158;0.880;2022-11-20T04:20:53;1006.35;;;9.3125;34.51
73306;BME280;61530;51.158;0.880;2022-11-20T04:21:59;1006.31;;;9.3125;35.2512
73306;BME280;61530;51.158;0.880;2022-11-20T04:22:59;1006.3;;;9.375;34.6952
73306;BME280;61530;51.158;0.880;2022-11-20T04:24:05;1006.26;;;9.375;34.8652
73306;BME280;61530;51.158;0.880;2022-11-20T04:25:05;1006.24;;;9.25;34.541
73306;BME280;61530;51.158;0.880;2022-11-20T04:26:12;1006.26;;;9.3125;34.2728
73306;BME280;61530;51.158;0.880;2022-11-20T04:27:17;1006.26;;;9.3125;34.3685
73306;BME280;61530;51.158;0.880;2022-11-20T04:28:23;1006.25;;;9.375;35.3671
73306;BME280;61530;51.158;0.880;2022-11-20T04:29:23;1006.23;;;9.375;34.7173
73306;BME280;61530;51.158;0.880;2022-11-20T04:30:28;1006.22;;;9.3125;34.3317
73306;BME280;61530;51.158;0.880;2022-11-20T04:31:30;1006.17;;;9.3125;34.8727
73306;BME280;61530;51.158;0.880;2022-11-20T04:32:35;1006.19;;;9.375;34.7515
73306;BME280;61530;51.158;0.880;2022-11-20T04:33:41;1006.15;;;9.375;34.5836
73306;BME280;61530;51.158;0.880;2022-11-20T04:34:47;1006.17;;;9.3125;34.3287
73306;BME280;61530;51.158;0.880;2022-11-20T04:35:48;1006.15;;;9.3125;34.4396
73306;BME280;61530;51.158;0.880;2022-11-20T04:36:52;1006.16;;;9.3125;34.1627
73306;BME280;61530;51.158;0.880;2022-11-20T04:37:53;1006.18;;;9.375;34.2698
73306;BME280;61530;51.158;0.880;2022-11-20T04:39:01;1006.16;;;9.375;34.7181
73306;BME280;61530;51.158;0.880;2022-11-20T04:40:05;1006.16;;;9.375;34.432
73306;BME280;61530;51.158;0.880;2022-11-20T04:41:15;1006.11;;;9.3125;34.8424
73306;BME280;61530;51.158;0.880;2022-11-20T04:42:11;1006.12;;;9.3125;35.0558
73306;BME280;61530;51.158;0.880;2022-11-20T04:43:16;1006.06;;;9.375;35.0612
73306;BME280;61530;51.158;0.880;2022-11-20T04:44:17;1006.05;;;9.375;34.8085
73306;BME280;61530;51.158;0.880;2022-11-20T04:45:23;1006.05;;;9.375;35.0955
73306;BME280;61530;51.158;0.880;2022-11-20T04:46:30;1006.06;;;9.4375;34.9808
73306;BME280;61530;51.158;0.880;2022-11-20T04:47:35;1006.02;;;9.375;34.7805
73306;BME280;61530;51.158;0.880;2022-11-20T04:48:35;1006.02;;;9.375;34.9632
73306;BME280;61530;51.158;0.880;2022-11-20T04:49:40;1006.06;;;9.4375;34.219
73306;BME280;61530;51.158;0.880;2022-11-20T04:50:41;1006.06;;;9.375;34.3216
73306;BME280;61530;51.158;0.880;2022-11-20T04:51:47;1006.04;;;9.375;34.3849
73306;BME280;61530;51.158;0.880;2022-11-20T04:52:53;1006.01;;;9.375;34.454
73306;BME280;61530;51.158;0.880;2022-11-20T04:53:59;1005.98;;;9.375;33.8526
73306;BME280;61530;51.158;0.880;2022-11-20T04:54:59;1005.99;;;9.375;34.0691
73306;BME280;61530;51.158;0.880;2022-11-20T04:56:06;1005.95;;;9.375;34.3123
73306;BME280;61530;51.158;0.880;2022-11-20T04:57:05;1005.98;;;9.3125;34.801
73306;BME280;61530;51.158;0.880;2022-11-20T04:58:11;1005.91;;;9.375;34.6135
73306;BME280;61530;51.158;0.880;2022-11-20T04:59:17;1005.93;;;9.3125;34.8082
73306;BME280;61530;51.158;0.880;2022-11-20T05:00:23;1005.88;;;9.375;34.9184
73306;BME280;61530;51.158;0.880;2022-11-20T05:01:24;1005.9;;;9.375;34.6795
73306;BME280;61530;51.158;0.880;2022-11-20T05:02:31;1005.88;;;9.375;34.5582
73306;BME280;61530;51.158;0.880;2022-11-20T05:03:29;1005.88;;;9.375;33.717
73306;BME280;61530;51.158;0.880;2022-11-20T05:04:35;1005.89;;;9.375;34.5737
73306;BME280;61530;51.158;0.880;2022-11-20T05:05:41;1005.88;;;9.375;34.1946
73306;BME280;61530;51.158;0.880;2022-11-20T05:06:47;1005.87;;;9.4375;34.6847
73306;BME280;61530;51.158;0.880;2022-11-20T05:07:47;1005.87;;;9.4375;34.5105
73306;BME280;61530;51.158;0.880;2022-11-20T05:08:52;1005.87;;;9.375;33.8122
73306;BME280;61530;51.158;0.880;2022-11-20T05:09:53;1005.9;;;9.375;34.0256
73306;BME280;61530;51.158;0.880;2022-11-20T05:11:01;1005.9;;;9.375;33.8936
73306;BME280;61530;51.158;0.880;2022-11-20T05:12:07;1005.9;;;9.3125;33.9915
73306;BME280;61530;51.158;0.880;2022-11-20T05:13:11;1005.9;;;9.375;33.9509
73306;BME280;61530;51.158;0.880;2022-11-20T05:14:11;1005.91;;;9.375;34.0504
73306;BME280;61530;51.158;0.880;2022-11-20T05:15:16;1005.92;;;9.375;34.7526
73306;BME280;61530;51.158;0.880;2022-11-20T05:16:18;1005.89;;;9.375;34.8447
73306;BME280;61530;51.158;0.880;2022-11-20T05:17:23;1005.87;;;9.375;34.4532
73306;BME280;61530;51.158;0.880;2022-11-20T05:18:29;1005.83;;;9.3125;34.7651
73306;BME280;61530;51.158;0.880;2022-11-20T05:19:35;1005.83;;;9.4375;34.294
73306;BME280;61530;51.158;0.880;2022-11-20T05:20:35;1005.77;;;9.375;34.6209
73306;BME280;61530;51.158;0.880;2022-11-20T05:21:40;1005.77;;;9.375;35.2116
73306;BME280;61530;51.158;0.880;2022-11-20T05:22:41;1005.75;;;9.375;35.1235
73306;BME280;61530;51.158;0.880;2022-11-20T05:23:47;1005.73;;;9.4375;35.2443
73306;BME280;61530;51.158;0.880;2022-11-20T05:24:53;1005.7;;;9.375;34.5989
73306;BME280;61530;51.158;0.880;2022-11-20T05:25:59;1005.72;;;9.375;34.4996
73306;BME280;61530;51.158;0.880;2022-11-20T05:26:59;1005.74;;;9.375;34.6024
73306;BME280;61530;51.158;0.880;2022-11-20T05:28:04;1005.71;;;9.375;34.4637
73306;BME280;61530;51.158;0.880;2022-11-20T05:29:05;1005.72;;;9.375;34.3362
73306;BME280;61530;51.158;0.880;2022-11-20T05:30:13;1005.68;;;9.375;34.5773
73306;BME280;61530;51.158;0.880;2022-11-20T05:31:19;1005.66;;;9.375;34.4406